International Virtual Aviation Organisation

Eastern Europe and Northern Asia MCD

 
USTR 110400Z 18005MPS 9999 FEW007 03/01 Q1035 R21/CLRD65 R12/CLRD65 TEMPO FEW004
QNH:(hPa/inHg/mmHg)1035 / 30.56 / 776
QFE:(hPa/inHg/mmHg)1021 / 30.15 / 766
Temperature3
Dew Point1
Visibility> 10000
Weather
Cloud CoverFEW (700);
FEW (400);
Transition Height700 m./2700 ft.
Transition LevelFL40
SQUAWK